Allerton, Illinois
Current Conditions -  °F | °C
As of 2:53 AM on Saturday 20 Dec 2014 (Local Time) from KCMI Reporting Station
Haze Haze  
Wind Chill: 18°   Ceiling: Unl
Heat Index: 24°   Visibility: 4mi
Dew Point: 22°   Wind: 5mph
Humidity: 91%   Direction: 90°E
Pressure: 30.27"   Gusts: NA
Location:  39.91°N, 87.94°W
Report Text: KCMI 200853Z AUTO 09004KT 4SM BR FEW070 M04/M06 A3027 RMK AO2 SLP259 I3001 T10441056 58003
Loading
Personal Weather Stations






























Interactive Weather Map New forecast layout! Learn more

10-Day Weather Forecast

Advertisements
Track Severe Weather on mobile